Portada
METAR-TAF:

METAR-TAF

Aeropuertos :

Aeropuerto Internacional de Damasco

Damasco, Siria

latitud: 33-25N, longitud: 036-31E, altitud: 608 m

Observación

El informe se hizo hace 49 minutos, a las 23:00 UTC
Viento 17 kt del suroeste
Temperatura 18°C
Humedad 68%
Presión 1011 hPa
Visibilidad 10 km o más
sin nubes por debajo de 1500 m y sin presencia de cumulonimbus.

METAR: OSDI 192300Z 22017KT CAVOK 18/12 Q1011

Hora: 02:49 (23:49 UTC)

Pronóstico

El informe se hizo hace 32 horas y 49 minutos, a las 15:00 UTC
Pronóstico válido del 18 a las 18 UTC al 19 a las 24 UTC
Viento 10 kt del suroeste
Visibilidad 10 km o más
sin nubes por debajo de 1500 m y sin presencia de cumulonimbus.

TAF: OSDI 181500Z 1818/1924 22010KT CAVOK

Observaciones y pronósticos meteorológicos de más de 4000 aeropuertos (mensajes METAR y TAF).

Los puntos amarillos y rojos representan las estaciones disponibles.

Ponga el ratón en el punto deseado para ver el nombre de la estación.

Haga clic para ver las observaciones y los pronósticos meteorológicos.

Para cambiar el mapa : haga clic en los botones verdes con una cruz de color negro para hacer un zoom, en el botón verde con un guión para alejar o en las flechas verdes para mapas adyacentes.


METAR-TAF: